createdAt,value
2023-05-21T00:01:23.878Z,12.70
2023-05-21T00:03:53.993Z,12.60
2023-05-21T00:06:23.230Z,12.60
2023-05-21T00:08:53.367Z,12.60
2023-05-21T00:11:24.136Z,12.60
2023-05-21T00:13:55.023Z,12.50
2023-05-21T00:16:26.005Z,12.50
2023-05-21T00:18:54.704Z,12.50
2023-05-21T00:21:26.288Z,12.50
2023-05-21T00:23:56.402Z,12.40
2023-05-21T00:26:26.576Z,12.40
2023-05-21T00:28:53.507Z,12.30
2023-05-21T00:31:20.669Z,12.20
2023-05-21T00:33:47.669Z,12.10
2023-05-21T00:36:14.963Z,12.10
2023-05-21T00:38:46.391Z,12.00
2023-05-21T00:41:13.789Z,12.00
2023-05-21T00:43:40.780Z,11.90
2023-05-21T00:46:16.533Z,11.90
2023-05-21T00:48:50.389Z,11.90
2023-05-21T00:51:18.789Z,11.90
2023-05-21T00:53:53.815Z,11.90
2023-05-21T00:56:23.566Z,11.90
2023-05-21T00:58:57.164Z,11.90
2023-05-21T01:01:27.563Z,11.90
2023-05-21T01:03:57.861Z,11.80
2023-05-21T01:06:24.965Z,11.80
2023-05-21T01:08:52.018Z,11.70
2023-05-21T01:11:19.837Z,11.70
2023-05-21T01:13:48.082Z,11.60
2023-05-21T01:16:15.266Z,11.60
2023-05-21T01:18:43.553Z,11.50
2023-05-21T01:21:11.094Z,11.50
2023-05-21T01:23:38.117Z,11.50
2023-05-21T01:26:05.085Z,11.40
2023-05-21T01:28:42.358Z,11.40
2023-05-21T01:31:26.710Z,11.30
2023-05-21T01:33:56.370Z,11.30
2023-05-21T01:36:32.871Z,11.20
2023-05-21T01:39:12.368Z,11.20
2023-05-21T01:41:44.056Z,11.20
2023-05-21T01:44:12.114Z,11.10
2023-05-21T01:46:39.906Z,11.20
2023-05-21T01:49:08.157Z,11.10
2023-05-21T01:51:36.251Z,11.10
2023-05-21T01:54:09.042Z,11.10
2023-05-21T01:56:37.111Z,11.10
2023-05-21T01:59:04.134Z,11.10
2023-05-21T02:01:38.345Z,11.10
2023-05-21T02:04:26.484Z,11.00
2023-05-21T02:06:54.897Z,11.00
2023-05-21T02:09:21.882Z,11.00
2023-05-21T02:11:48.780Z,11.00
2023-05-21T02:14:16.851Z,10.90
2023-05-21T02:16:43.936Z,10.90
2023-05-21T02:19:11.249Z,10.90
2023-05-21T02:21:38.348Z,10.90
2023-05-21T02:24:05.807Z,10.90
2023-05-21T02:26:32.764Z,10.90
2023-05-21T02:29:06.770Z,10.90
2023-05-21T02:31:33.668Z,10.80
2023-05-21T02:34:08.149Z,10.80
2023-05-21T02:36:36.083Z,10.80
2023-05-21T02:39:03.188Z,10.80
2023-05-21T02:41:33.364Z,10.90
2023-05-21T02:44:00.370Z,10.90
2023-05-21T02:46:30.499Z,10.80
2023-05-21T02:48:57.593Z,10.80
2023-05-21T02:51:31.561Z,10.80
2023-05-21T02:53:58.631Z,10.80
2023-05-21T02:56:26.131Z,10.70
2023-05-21T02:58:53.457Z,10.80
2023-05-21T03:01:20.839Z,10.80
2023-05-21T03:03:47.809Z,10.70
2023-05-21T03:06:16.341Z,10.70
2023-05-21T03:08:43.356Z,10.70
2023-05-21T03:11:10.612Z,10.70
2023-05-21T03:13:37.557Z,10.70
2023-05-21T03:16:05.352Z,10.70
2023-05-21T03:18:32.336Z,10.80
2023-05-21T03:20:59.368Z,10.70
2023-05-21T03:23:27.209Z,10.70
2023-05-21T03:25:54.182Z,10.70
2023-05-21T03:28:21.224Z,10.70
2023-05-21T03:30:49.844Z,10.70
2023-05-21T03:33:16.986Z,10.70
2023-05-21T03:35:44.006Z,10.70
2023-05-21T03:38:11.056Z,10.70
2023-05-21T03:40:37.976Z,10.70
2023-05-21T03:43:04.879Z,10.70
2023-05-21T03:45:31.853Z,10.70
2023-05-21T03:47:58.902Z,10.60
2023-05-21T03:50:25.936Z,10.60
2023-05-21T03:52:52.880Z,10.60
2023-05-21T03:55:19.818Z,10.60
2023-05-21T03:57:46.854Z,10.60
2023-05-21T04:00:14.097Z,10.60
2023-05-21T04:02:41.173Z,10.60
2023-05-21T04:05:08.770Z,10.50
2023-05-21T04:07:38.355Z,10.50
2023-05-21T04:10:06.665Z,10.50
2023-05-21T04:12:33.716Z,10.50
2023-05-21T04:15:02.561Z,10.50
2023-05-21T04:17:29.561Z,10.50
2023-05-21T04:19:56.553Z,10.60
2023-05-21T04:22:26.685Z,10.60
2023-05-21T04:24:54.623Z,10.60
2023-05-21T04:27:25.616Z,10.70
2023-05-21T04:29:54.808Z,10.70
2023-05-21T04:32:22.167Z,10.70
2023-05-21T04:34:49.134Z,10.70
2023-05-21T04:37:19.455Z,10.70
2023-05-21T04:39:46.895Z,10.80
2023-05-21T04:42:14.180Z,10.90
2023-05-21T04:44:41.539Z,11.00
2023-05-21T04:47:08.569Z,11.10
2023-05-21T04:49:35.609Z,11.10
2023-05-21T04:52:02.868Z,11.20
2023-05-21T04:54:29.929Z,11.20
2023-05-21T04:56:58.137Z,11.30
2023-05-21T04:59:25.147Z,11.30
2023-05-21T05:01:52.662Z,11.30
2023-05-21T05:04:19.645Z,11.40
2023-05-21T05:06:47.304Z,11.40
2023-05-21T05:09:14.333Z,11.50
2023-05-21T05:11:41.268Z,11.50
2023-05-21T05:14:08.295Z,11.60
2023-05-21T05:16:35.681Z,11.70
2023-05-21T05:19:03.171Z,11.80
2023-05-21T05:21:30.702Z,11.80
2023-05-21T05:23:57.757Z,11.90
2023-05-21T05:26:26.223Z,12.00
2023-05-21T05:28:53.304Z,12.10
2023-05-21T05:31:21.086Z,12.20
2023-05-21T05:33:48.984Z,12.30
2023-05-21T05:36:16.530Z,12.40
2023-05-21T05:38:43.445Z,12.60
2023-05-21T05:41:10.348Z,12.70
2023-05-21T05:43:37.388Z,12.80
2023-05-21T05:46:04.555Z,12.90
2023-05-21T05:48:31.643Z,13.00
2023-05-21T05:50:58.716Z,13.10
2023-05-21T05:53:25.841Z,13.20
2023-05-21T05:55:52.851Z,13.20
2023-05-21T05:58:19.845Z,13.30
2023-05-21T06:00:46.840Z,13.40
2023-05-21T06:03:14.091Z,13.40
2023-05-21T06:05:41.278Z,13.50
2023-05-21T06:08:08.208Z,13.50
2023-05-21T06:10:35.149Z,13.50
2023-05-21T06:13:02.116Z,13.60
2023-05-21T06:15:29.067Z,13.70
2023-05-21T06:17:56.053Z,13.70
2023-05-21T06:20:23.077Z,13.70
2023-05-21T06:22:49.988Z,13.80
2023-05-21T06:25:18.299Z,13.90
2023-05-21T06:27:45.332Z,14.00
2023-05-21T06:30:12.430Z,14.00
2023-05-21T06:32:39.404Z,14.20
2023-05-21T06:35:06.975Z,14.30
2023-05-21T06:37:33.968Z,14.50
2023-05-21T06:40:01.570Z,14.60
2023-05-21T06:42:28.565Z,14.70
2023-05-21T06:44:55.529Z,14.90
2023-05-21T06:47:22.698Z,15.10
2023-05-21T06:49:49.713Z,15.30
2023-05-21T06:52:16.664Z,15.50
2023-05-21T06:54:43.672Z,15.60
2023-05-21T06:57:10.718Z,15.80
2023-05-21T06:59:37.682Z,15.90
2023-05-21T07:02:04.888Z,16.00
2023-05-21T07:04:32.117Z,16.20
2023-05-21T07:06:59.020Z,16.30
2023-05-21T07:09:26.046Z,16.40
2023-05-21T07:11:53.411Z,16.50
2023-05-21T07:14:20.429Z,16.60
2023-05-21T07:16:47.485Z,16.60
2023-05-21T07:19:15.846Z,16.70
2023-05-21T07:21:42.798Z,16.90
2023-05-21T07:24:09.731Z,17.00
2023-05-21T07:26:36.700Z,17.10
2023-05-21T07:29:03.747Z,17.20
2023-05-21T07:31:30.821Z,17.30
2023-05-21T07:33:57.817Z,17.50
2023-05-21T07:36:27.234Z,17.90
2023-05-21T07:38:54.772Z,18.10
2023-05-21T07:41:22.113Z,18.10
2023-05-21T07:43:49.366Z,18.00
2023-05-21T07:46:16.332Z,18.00
2023-05-21T07:48:43.692Z,18.10
2023-05-21T07:51:11.614Z,18.10
2023-05-21T07:53:38.549Z,18.30
2023-05-21T07:56:06.655Z,18.40
2023-05-21T07:58:35.158Z,18.50
2023-05-21T08:01:02.881Z,18.50
2023-05-21T08:03:33.011Z,18.70
2023-05-21T08:06:00.052Z,18.80
2023-05-21T08:08:27.040Z,19.00
2023-05-21T08:10:54.017Z,19.10
2023-05-21T08:13:21.172Z,19.10
2023-05-21T08:15:52.084Z,19.00
2023-05-21T08:18:20.059Z,19.00
2023-05-21T08:20:48.300Z,19.10
2023-05-21T08:23:15.276Z,19.30
2023-05-21T08:25:42.459Z,19.30
2023-05-21T08:28:09.384Z,19.30
2023-05-21T08:30:36.633Z,19.30
2023-05-21T08:33:03.783Z,19.30
2023-05-21T08:35:30.793Z,19.30
2023-05-21T08:37:58.803Z,19.40
2023-05-21T08:40:25.839Z,19.60
2023-05-21T08:42:52.992Z,20.00
2023-05-21T08:45:24.054Z,20.30
2023-05-21T08:47:58.693Z,20.70
2023-05-21T08:50:28.284Z,20.90
2023-05-21T08:52:55.588Z,21.10
2023-05-21T08:55:23.665Z,21.30
2023-05-21T08:57:54.020Z,21.60
2023-05-21T09:00:21.497Z,21.60
2023-05-21T09:02:48.733Z,21.70
2023-05-21T09:05:16.744Z,21.80
2023-05-21T09:08:02.674Z,21.80
2023-05-21T09:10:51.862Z,21.90
2023-05-21T09:13:20.278Z,22.10
2023-05-21T09:15:48.066Z,22.30
2023-05-21T09:18:15.231Z,22.40
2023-05-21T09:20:42.371Z,22.30
2023-05-21T09:23:16.924Z,22.20
2023-05-21T09:25:49.048Z,22.00
2023-05-21T09:28:17.810Z,21.70
2023-05-21T09:30:50.111Z,21.40
2023-05-21T09:33:31.501Z,21.00
2023-05-21T09:35:58.644Z,20.90
2023-05-21T09:38:26.438Z,20.90
2023-05-21T09:40:56.994Z,20.90
2023-05-21T09:43:24.020Z,20.90
2023-05-21T09:45:58.953Z,21.10
2023-05-21T09:48:44.254Z,21.30
2023-05-21T09:51:19.585Z,21.30
2023-05-21T09:53:59.925Z,21.40
2023-05-21T09:56:32.288Z,21.50
2023-05-21T09:59:04.327Z,21.70
2023-05-21T10:01:36.070Z,21.80
2023-05-21T10:04:07.586Z,21.70
2023-05-21T10:06:41.113Z,21.90
2023-05-21T10:09:11.198Z,21.90
2023-05-21T10:11:39.873Z,21.80
2023-05-21T10:14:09.867Z,21.70
2023-05-21T10:16:37.906Z,21.90
2023-05-21T10:19:10.722Z,22.10
2023-05-21T10:21:39.963Z,22.30
2023-05-21T10:24:09.277Z,22.40
2023-05-21T10:26:38.424Z,22.60
2023-05-21T10:29:05.529Z,22.70
2023-05-21T10:31:33.244Z,22.90
2023-05-21T10:34:00.868Z,23.10
2023-05-21T10:36:31.795Z,23.20
2023-05-21T10:39:00.356Z,23.20
2023-05-21T10:41:33.372Z,23.00
2023-05-21T10:44:19.999Z,22.50
2023-05-21T10:47:14.268Z,22.20
2023-05-21T10:50:09.353Z,22.00
2023-05-21T10:53:12.792Z,22.10
2023-05-21T10:56:17.274Z,22.50
2023-05-21T10:59:10.060Z,22.80
2023-05-21T11:01:38.679Z,23.00
2023-05-21T11:04:06.216Z,23.00
2023-05-21T11:06:33.391Z,23.10
2023-05-21T11:09:15.719Z,22.90
2023-05-21T11:11:43.645Z,23.00
2023-05-21T11:14:36.786Z,23.30
2023-05-21T11:17:07.396Z,23.20
2023-05-21T11:19:42.032Z,22.80
2023-05-21T11:22:26.669Z,22.50
2023-05-21T11:24:56.082Z,22.00
2023-05-21T11:27:40.064Z,21.80
2023-05-21T11:30:16.766Z,21.60
2023-05-21T11:33:10.118Z,21.90
2023-05-21T11:36:00.359Z,22.30
2023-05-21T11:38:34.097Z,22.70
2023-05-21T11:41:04.341Z,22.80
2023-05-21T11:43:31.389Z,22.50
2023-05-21T11:45:59.196Z,22.30
2023-05-21T11:48:28.433Z,22.00
2023-05-21T11:50:57.512Z,21.90
2023-05-21T11:53:24.514Z,21.90
2023-05-21T11:55:57.330Z,21.80
2023-05-21T11:58:24.576Z,22.00
2023-05-21T12:00:52.073Z,22.40
2023-05-21T12:03:19.897Z,22.60
2023-05-21T12:05:48.645Z,22.40
2023-05-21T12:08:27.605Z,22.30
2023-05-21T12:11:01.876Z,22.30
2023-05-21T12:13:29.212Z,22.10
2023-05-21T12:15:56.366Z,22.30
2023-05-21T12:18:27.821Z,22.30
2023-05-21T12:20:54.765Z,22.30
2023-05-21T12:23:24.758Z,22.20
2023-05-21T12:25:53.636Z,22.00
2023-05-21T12:28:24.820Z,21.80
2023-05-21T12:30:53.499Z,21.70
2023-05-21T12:33:21.703Z,21.60
2023-05-21T12:35:51.717Z,21.50
2023-05-21T12:38:18.774Z,21.40
2023-05-21T12:40:45.970Z,21.50
2023-05-21T12:43:13.276Z,21.50
2023-05-21T12:45:40.734Z,21.40
2023-05-21T12:48:08.374Z,21.30
2023-05-21T12:50:40.868Z,21.20
2023-05-21T12:53:11.113Z,21.20
2023-05-21T12:55:38.184Z,21.20
2023-05-21T12:58:09.055Z,21.10
2023-05-21T13:00:37.398Z,21.10
2023-05-21T13:03:06.374Z,21.00
2023-05-21T13:05:33.961Z,20.90
2023-05-21T13:08:00.922Z,21.00
2023-05-21T13:10:27.874Z,21.10
2023-05-21T13:12:54.814Z,21.00
2023-05-21T13:15:21.788Z,20.90
2023-05-21T13:17:50.407Z,20.90
2023-05-21T13:20:21.551Z,21.00
2023-05-21T13:22:51.847Z,21.20
2023-05-21T13:25:28.450Z,21.20
2023-05-21T13:27:56.360Z,21.50
2023-05-21T13:30:23.292Z,21.60
2023-05-21T13:32:50.560Z,21.70
2023-05-21T13:35:17.743Z,21.70
2023-05-21T13:37:45.398Z,21.70
2023-05-21T13:40:15.820Z,21.70
2023-05-21T13:42:45.609Z,21.80
2023-05-21T13:45:16.344Z,21.60
2023-05-21T13:47:44.741Z,21.70
2023-05-21T13:50:12.470Z,21.70
2023-05-21T13:52:39.957Z,21.80
2023-05-21T13:55:07.517Z,21.70
2023-05-21T13:57:34.602Z,21.70
2023-05-21T14:00:01.836Z,21.70
2023-05-21T14:02:29.205Z,21.70
2023-05-21T14:04:56.385Z,21.80
2023-05-21T14:07:23.325Z,21.90
2023-05-21T14:09:50.431Z,21.90
2023-05-21T14:12:17.627Z,21.80
2023-05-21T14:14:44.763Z,21.80
2023-05-21T14:17:11.737Z,21.70
2023-05-21T14:19:38.682Z,21.60
2023-05-21T14:22:05.824Z,21.70
2023-05-21T14:24:32.853Z,21.70
2023-05-21T14:26:59.857Z,21.90
2023-05-21T14:29:26.881Z,22.00
2023-05-21T14:31:53.927Z,22.10
2023-05-21T14:34:20.943Z,22.20
2023-05-21T14:36:47.900Z,22.00
2023-05-21T14:39:14.892Z,22.00
2023-05-21T14:41:41.809Z,22.00
2023-05-21T14:44:08.794Z,22.00
2023-05-21T14:46:36.914Z,22.00
2023-05-21T14:49:03.981Z,21.90
2023-05-21T14:51:31.719Z,21.80
2023-05-21T14:53:58.950Z,21.70
2023-05-21T14:56:27.623Z,21.70
2023-05-21T14:58:55.076Z,21.80
2023-05-21T15:01:22.492Z,21.80
2023-05-21T15:03:49.832Z,21.90
2023-05-21T15:06:17.234Z,21.90
2023-05-21T15:08:44.195Z,21.60
2023-05-21T15:11:11.579Z,21.80
2023-05-21T15:13:39.286Z,22.00
2023-05-21T15:16:06.631Z,22.10
2023-05-21T15:18:34.106Z,22.20
2023-05-21T15:21:01.436Z,22.20
2023-05-21T15:23:28.541Z,22.10
2023-05-21T15:25:55.951Z,22.00
2023-05-21T15:28:23.141Z,21.90
2023-05-21T15:30:50.305Z,21.70
2023-05-21T15:33:17.615Z,21.70
2023-05-21T15:35:45.038Z,21.70
2023-05-21T15:38:12.411Z,21.60
2023-05-21T15:40:43.237Z,21.40
2023-05-21T15:43:10.215Z,21.30
2023-05-21T15:45:38.475Z,21.40
2023-05-21T15:48:06.400Z,21.40
2023-05-21T15:50:35.574Z,21.50
2023-05-21T15:53:04.812Z,21.50
2023-05-21T15:55:34.699Z,21.30
2023-05-21T15:58:03.674Z,21.20
2023-05-21T16:00:30.702Z,21.20
2023-05-21T16:02:57.807Z,21.20
2023-05-21T16:05:25.631Z,21.30
2023-05-21T16:07:52.625Z,21.30
2023-05-21T16:10:19.602Z,21.50
2023-05-21T16:12:46.645Z,21.70
2023-05-21T16:15:13.635Z,21.80
2023-05-21T16:17:40.853Z,21.90
2023-05-21T16:20:08.386Z,21.90
2023-05-21T16:22:35.332Z,21.80
2023-05-21T16:25:02.986Z,21.60
2023-05-21T16:27:29.926Z,21.60
2023-05-21T16:29:56.889Z,21.60
2023-05-21T16:32:24.158Z,21.70
2023-05-21T16:34:51.555Z,21.80
2023-05-21T16:37:18.473Z,21.80
2023-05-21T16:39:45.914Z,21.60
2023-05-21T16:42:12.876Z,21.60
2023-05-21T16:44:39.772Z,21.50
2023-05-21T16:47:06.908Z,21.50
2023-05-21T16:49:33.856Z,21.50
2023-05-21T16:52:01.625Z,21.40
2023-05-21T16:54:28.559Z,21.30
2023-05-21T16:56:56.000Z,21.40
2023-05-21T16:59:22.969Z,21.30
2023-05-21T17:01:49.952Z,21.40
2023-05-21T17:04:17.038Z,21.40
2023-05-21T17:06:43.955Z,21.30
2023-05-21T17:09:11.441Z,21.40
2023-05-21T17:11:38.459Z,21.30
2023-05-21T17:14:05.407Z,21.20
2023-05-21T17:16:32.404Z,21.10
2023-05-21T17:18:59.890Z,20.70
2023-05-21T17:21:27.303Z,20.30
2023-05-21T17:23:54.205Z,20.20
2023-05-21T17:26:21.850Z,19.90
2023-05-21T17:28:48.832Z,19.60
2023-05-21T17:31:16.339Z,19.60
2023-05-21T17:33:43.448Z,19.60
2023-05-21T17:36:10.421Z,19.50
2023-05-21T17:38:37.365Z,19.40
2023-05-21T17:41:04.867Z,19.20
2023-05-21T17:43:32.032Z,19.10
2023-05-21T17:45:59.092Z,18.90
2023-05-21T17:48:26.499Z,18.80
2023-05-21T17:50:53.752Z,18.70
2023-05-21T17:53:20.715Z,18.60
2023-05-21T17:55:47.765Z,18.60
2023-05-21T17:58:14.751Z,18.60
2023-05-21T18:00:41.722Z,18.50
2023-05-21T18:03:08.846Z,18.50
2023-05-21T18:05:36.694Z,18.50
2023-05-21T18:08:04.728Z,18.50
2023-05-21T18:10:31.773Z,18.40
2023-05-21T18:12:58.716Z,18.40
2023-05-21T18:15:25.664Z,18.40
2023-05-21T18:17:52.655Z,18.30
2023-05-21T18:20:19.737Z,18.20
2023-05-21T18:22:46.712Z,18.10
2023-05-21T18:25:13.739Z,18.00
2023-05-21T18:27:40.713Z,18.00
2023-05-21T18:30:08.689Z,17.90
2023-05-21T18:32:39.491Z,17.80
2023-05-21T18:35:12.408Z,17.70
2023-05-21T18:37:42.619Z,17.60
2023-05-21T18:40:11.166Z,17.50
2023-05-21T18:42:38.120Z,17.50
2023-05-21T18:45:10.155Z,17.40
2023-05-21T18:47:39.052Z,17.30
2023-05-21T18:50:12.256Z,17.20
2023-05-21T18:52:39.264Z,17.10
2023-05-21T18:55:06.873Z,17.00
2023-05-21T18:57:38.115Z,16.90
2023-05-21T19:00:09.766Z,16.80
2023-05-21T19:02:37.414Z,16.70
2023-05-21T19:05:05.066Z,16.50
2023-05-21T19:07:32.071Z,16.50
2023-05-21T19:10:00.395Z,16.30
2023-05-21T19:12:29.394Z,16.20
2023-05-21T19:14:56.446Z,16.10
2023-05-21T19:17:23.905Z,16.00
2023-05-21T19:19:55.776Z,16.00
2023-05-21T19:22:27.585Z,15.90
2023-05-21T19:24:55.092Z,15.80
2023-05-21T19:27:22.254Z,15.70
2023-05-21T19:29:49.214Z,15.70
2023-05-21T19:32:16.532Z,15.60
2023-05-21T19:34:43.563Z,15.50
2023-05-21T19:37:10.669Z,15.40
2023-05-21T19:39:41.693Z,15.40
2023-05-21T19:42:10.137Z,15.30
2023-05-21T19:44:43.161Z,15.20
2023-05-21T19:47:10.237Z,15.10
2023-05-21T19:49:37.260Z,15.00
2023-05-21T19:52:05.190Z,14.90
2023-05-21T19:54:32.262Z,14.80
2023-05-21T19:56:59.269Z,14.80
2023-05-21T19:59:26.358Z,14.70
2023-05-21T20:01:53.495Z,14.70
2023-05-21T20:04:20.550Z,14.60
2023-05-21T20:06:47.624Z,14.60
2023-05-21T20:09:16.329Z,14.50
2023-05-21T20:11:43.507Z,14.50
2023-05-21T20:14:10.914Z,14.40
2023-05-21T20:16:38.002Z,14.40
2023-05-21T20:19:05.738Z,14.30
2023-05-21T20:21:32.872Z,14.30
2023-05-21T20:23:59.943Z,14.20
2023-05-21T20:26:26.970Z,14.10
2023-05-21T20:28:54.139Z,14.10
2023-05-21T20:31:21.905Z,14.00
2023-05-21T20:33:50.518Z,14.00
2023-05-21T20:36:17.869Z,14.00
2023-05-21T20:38:45.808Z,14.00
2023-05-21T20:41:13.229Z,13.90
2023-05-21T20:43:40.252Z,13.90
2023-05-21T20:46:07.852Z,13.90
2023-05-21T20:48:35.380Z,13.80
2023-05-21T20:51:04.583Z,13.70
2023-05-21T20:53:32.102Z,13.80
2023-05-21T20:56:01.496Z,13.70
2023-05-21T20:58:28.843Z,13.70
2023-05-21T21:00:55.870Z,13.70
2023-05-21T21:03:22.937Z,13.70
2023-05-21T21:05:49.966Z,13.60
2023-05-21T21:08:16.912Z,13.60
2023-05-21T21:10:46.807Z,13.50
2023-05-21T21:13:14.747Z,13.60
2023-05-21T21:15:43.895Z,13.50
2023-05-21T21:18:12.604Z,13.40
2023-05-21T21:20:41.338Z,13.40
2023-05-21T21:23:08.727Z,13.40
2023-05-21T21:25:35.862Z,13.40
2023-05-21T21:28:02.884Z,13.30
2023-05-21T21:30:30.867Z,13.30
2023-05-21T21:32:58.102Z,13.30
2023-05-21T21:35:25.284Z,13.30
2023-05-21T21:37:52.234Z,13.20
2023-05-21T21:40:19.174Z,13.20
2023-05-21T21:42:46.386Z,13.20
2023-05-21T21:45:13.367Z,13.20
2023-05-21T21:47:40.448Z,13.20
2023-05-21T21:50:08.449Z,13.10
2023-05-21T21:52:40.021Z,13.10
2023-05-21T21:55:10.118Z,13.10
2023-05-21T21:57:42.954Z,13.10
2023-05-21T22:00:17.135Z,13.10
2023-05-21T22:02:46.709Z,13.10
2023-05-21T22:05:16.902Z,13.00
2023-05-21T22:07:48.012Z,13.00
2023-05-21T22:10:16.264Z,13.00
2023-05-21T22:12:44.964Z,13.00
2023-05-21T22:15:19.926Z,13.00
2023-05-21T22:17:48.716Z,13.00
2023-05-21T22:20:17.547Z,13.00
2023-05-21T22:22:46.090Z,12.90
2023-05-21T22:25:13.189Z,12.90
2023-05-21T22:27:40.539Z,13.00
2023-05-21T22:30:08.461Z,13.00
2023-05-21T22:32:35.668Z,13.00
2023-05-21T22:35:02.735Z,13.00
2023-05-21T22:37:29.807Z,13.00
2023-05-21T22:39:57.870Z,13.00
2023-05-21T22:42:24.958Z,13.00
2023-05-21T22:44:52.258Z,13.00
2023-05-21T22:47:23.702Z,13.00
2023-05-21T22:49:53.270Z,13.00
2023-05-21T22:52:23.723Z,13.00
2023-05-21T22:54:54.601Z,13.00
2023-05-21T22:57:21.752Z,13.00
2023-05-21T22:59:48.746Z,13.00
2023-05-21T23:02:16.972Z,13.00
2023-05-21T23:04:44.814Z,13.00
2023-05-21T23:07:12.422Z,13.00
2023-05-21T23:09:39.652Z,13.00
2023-05-21T23:12:07.521Z,13.00
2023-05-21T23:14:34.516Z,13.00
2023-05-21T23:17:04.580Z,13.10
2023-05-21T23:19:32.933Z,13.10
2023-05-21T23:22:00.321Z,13.10
2023-05-21T23:24:29.310Z,13.10
2023-05-21T23:27:01.694Z,13.10
2023-05-21T23:29:30.341Z,13.10
2023-05-21T23:31:57.629Z,13.10
2023-05-21T23:34:24.844Z,13.10
2023-05-21T23:36:52.053Z,13.10
2023-05-21T23:39:19.119Z,13.10
2023-05-21T23:41:46.276Z,13.10
2023-05-21T23:44:13.503Z,13.00
2023-05-21T23:46:40.449Z,13.00
2023-05-21T23:49:07.391Z,13.10
2023-05-21T23:51:40.880Z,13.10
2023-05-21T23:54:09.034Z,13.10
2023-05-21T23:56:36.049Z,13.10
2023-05-21T23:59:03.018Z,13.10
